sensor_id;sensor_type;location;lat;lon;timestamp;noise_LAeq;noise_LA_min;noise_LA_max;noise_LA01;noise_LA95
59284;Laerm;45056;47.602;9.886;2024-02-15T00:00:18;44.35;35.04;58.30;;
59284;Laerm;45056;47.602;9.886;2024-02-15T00:02:46;41.60;34.69;58.41;;
59284;Laerm;45056;47.602;9.886;2024-02-15T00:05:14;38.80;34.31;42.35;;
59284;Laerm;45056;47.602;9.886;2024-02-15T00:07:42;38.49;34.69;41.14;;
59284;Laerm;45056;47.602;9.886;2024-02-15T00:10:12;38.91;35.04;41.61;;
59284;Laerm;45056;47.602;9.886;2024-02-15T00:12:41;39.57;35.04;42.29;;
59284;Laerm;45056;47.602;9.886;2024-02-15T00:15:09;42.27;35.94;56.84;;
59284;Laerm;45056;47.602;9.886;2024-02-15T00:17:37;42.02;35.66;55.14;;
59284;Laerm;45056;47.602;9.886;2024-02-15T00:20:06;39.38;35.66;44.54;;
59284;Laerm;45056;47.602;9.886;2024-02-15T00:22:36;38.67;35.31;41.38;;
59284;Laerm;45056;47.602;9.886;2024-02-15T00:25:05;40.83;35.94;53.37;;
59284;Laerm;45056;47.602;9.886;2024-02-15T00:27:37;38.69;35.36;45.83;;
59284;Laerm;45056;47.602;9.886;2024-02-15T00:30:07;40.20;34.69;54.51;;
59284;Laerm;45056;47.602;9.886;2024-02-15T00:32:35;39.19;35.66;45.86;;
59284;Laerm;45056;47.602;9.886;2024-02-15T00:35:05;38.94;35.36;42.22;;
59284;Laerm;45056;47.602;9.886;2024-02-15T00:37:36;39.35;35.36;43.68;;
59284;Laerm;45056;47.602;9.886;2024-02-15T00:40:06;38.73;35.66;43.54;;
59284;Laerm;45056;47.602;9.886;2024-02-15T00:42:34;40.42;35.04;51.06;;
59284;Laerm;45056;47.602;9.886;2024-02-15T00:45:05;40.63;35.66;54.81;;
59284;Laerm;45056;47.602;9.886;2024-02-15T00:47:34;41.19;34.69;54.56;;
59284;Laerm;45056;47.602;9.886;2024-02-15T00:50:05;40.94;35.36;53.93;;
59284;Laerm;45056;47.602;9.886;2024-02-15T00:52:34;38.49;34.69;45.23;;
59284;Laerm;45056;47.602;9.886;2024-02-15T00:55:02;45.79;35.36;62.23;;
59284;Laerm;45056;47.602;9.886;2024-02-15T00:57:30;44.19;35.04;63.07;;
59284;Laerm;45056;47.602;9.886;2024-02-15T00:59:58;41.75;34.69;59.12;;
59284;Laerm;45056;47.602;9.886;2024-02-15T01:02:27;42.57;35.04;58.36;;
59284;Laerm;45056;47.602;9.886;2024-02-15T01:04:56;38.39;35.04;41.06;;
59284;Laerm;45056;47.602;9.886;2024-02-15T01:07:24;39.63;35.94;43.60;;
59284;Laerm;45056;47.602;9.886;2024-02-15T01:09:54;38.54;35.36;40.98;;
59284;Laerm;45056;47.602;9.886;2024-02-15T01:12:22;39.99;35.04;54.98;;
59284;Laerm;45056;47.602;9.886;2024-02-15T01:14:50;40.60;36.45;45.51;;
59284;Laerm;45056;47.602;9.886;2024-02-15T01:17:18;41.38;36.69;54.79;;
59284;Laerm;45056;47.602;9.886;2024-02-15T01:19:47;39.36;35.66;43.24;;
59284;Laerm;45056;47.602;9.886;2024-02-15T01:22:16;38.90;34.69;44.03;;
59284;Laerm;45056;47.602;9.886;2024-02-15T01:24:44;38.42;34.69;40.71;;
59284;Laerm;45056;47.602;9.886;2024-02-15T01:27:12;40.37;34.69;53.31;;
59284;Laerm;45056;47.602;9.886;2024-02-15T01:29:40;39.39;34.31;43.29;;
59284;Laerm;45056;47.602;9.886;2024-02-15T01:32:09;41.07;35.36;55.56;;
59284;Laerm;45056;47.602;9.886;2024-02-15T01:34:37;38.73;34.69;42.65;;
59284;Laerm;45056;47.602;9.886;2024-02-15T01:37:06;38.56;35.36;40.89;;
59284;Laerm;45056;47.602;9.886;2024-02-15T01:39:34;38.98;35.66;42.82;;
59284;Laerm;45056;47.602;9.886;2024-02-15T01:42:03;40.24;35.59;50.67;;
59284;Laerm;45056;47.602;9.886;2024-02-15T01:44:31;39.43;33.90;42.53;;
59284;Laerm;45056;47.602;9.886;2024-02-15T01:47:00;41.83;36.56;55.66;;
59284;Laerm;45056;47.602;9.886;2024-02-15T01:49:28;38.81;35.31;43.24;;
59284;Laerm;45056;47.602;9.886;2024-02-15T01:51:59;38.44;35.04;45.14;;
59284;Laerm;45056;47.602;9.886;2024-02-15T01:54:30;38.51;35.36;41.06;;
59284;Laerm;45056;47.602;9.886;2024-02-15T01:57:00;39.63;35.66;43.34;;
59284;Laerm;45056;47.602;9.886;2024-02-15T01:59:31;39.11;35.04;45.14;;
59284;Laerm;45056;47.602;9.886;2024-02-15T02:02:00;43.85;34.69;58.85;;
59284;Laerm;45056;47.602;9.886;2024-02-15T02:04:28;41.55;35.36;59.61;;
59284;Laerm;45056;47.602;9.886;2024-02-15T02:06:58;41.82;35.36;54.63;;
59284;Laerm;45056;47.602;9.886;2024-02-15T02:09:26;40.19;35.36;45.57;;
59284;Laerm;45056;47.602;9.886;2024-02-15T02:11:55;39.04;35.36;42.59;;
59284;Laerm;45056;47.602;9.886;2024-02-15T02:14:23;39.85;36.20;42.35;;
59284;Laerm;45056;47.602;9.886;2024-02-15T02:16:51;40.59;35.36;58.01;;
59284;Laerm;45056;47.602;9.886;2024-02-15T02:19:20;39.09;34.69;43.04;;
59284;Laerm;45056;47.602;9.886;2024-02-15T02:21:49;38.79;35.36;41.22;;
59284;Laerm;45056;47.602;9.886;2024-02-15T02:24:22;40.46;35.59;46.25;;
59284;Laerm;45056;47.602;9.886;2024-02-15T02:26:52;38.69;35.04;41.94;;
59284;Laerm;45056;47.602;9.886;2024-02-15T02:29:21;38.37;34.31;41.61;;
59284;Laerm;45056;47.602;9.886;2024-02-15T02:31:49;40.41;34.69;56.24;;
59284;Laerm;45056;47.602;9.886;2024-02-15T02:34:17;39.78;36.20;42.41;;
59284;Laerm;45056;47.602;9.886;2024-02-15T02:36:46;39.85;35.04;48.02;;
59284;Laerm;45056;47.602;9.886;2024-02-15T02:39:14;39.22;35.04;43.72;;
59284;Laerm;45056;47.602;9.886;2024-02-15T02:41:43;38.49;35.04;46.64;;
59284;Laerm;45056;47.602;9.886;2024-02-15T02:44:12;39.69;35.36;52.29;;
59284;Laerm;45056;47.602;9.886;2024-02-15T02:46:42;41.01;35.36;54.12;;
59284;Laerm;45056;47.602;9.886;2024-02-15T02:49:10;38.46;34.69;40.80;;
59284;Laerm;45056;47.602;9.886;2024-02-15T02:51:38;38.46;35.04;40.98;;
59284;Laerm;45056;47.602;9.886;2024-02-15T02:54:06;38.46;35.36;41.06;;
59284;Laerm;45056;47.602;9.886;2024-02-15T02:56:34;42.89;35.66;57.83;;
59284;Laerm;45056;47.602;9.886;2024-02-15T02:59:02;43.08;35.36;58.53;;
59284;Laerm;45056;47.602;9.886;2024-02-15T03:01:32;45.03;36.69;58.62;;
59284;Laerm;45056;47.602;9.886;2024-02-15T03:04:01;39.51;35.01;43.94;;
59284;Laerm;45056;47.602;9.886;2024-02-15T03:06:29;38.60;35.04;54.81;;
59284;Laerm;45056;47.602;9.886;2024-02-15T03:08:57;39.13;35.04;43.46;;
59284;Laerm;45056;47.602;9.886;2024-02-15T03:11:25;39.27;34.31;42.59;;
59284;Laerm;45056;47.602;9.886;2024-02-15T03:13:53;39.49;35.66;45.99;;
59284;Laerm;45056;47.602;9.886;2024-02-15T03:16:22;39.77;35.04;55.12;;
59284;Laerm;45056;47.602;9.886;2024-02-15T03:18:53;39.63;35.36;48.43;;
59284;Laerm;45056;47.602;9.886;2024-02-15T03:21:21;40.33;35.04;50.16;;
59284;Laerm;45056;47.602;9.886;2024-02-15T03:23:49;40.37;35.94;47.32;;
59284;Laerm;45056;47.602;9.886;2024-02-15T03:26:29;41.38;36.91;50.42;;
59284;Laerm;45056;47.602;9.886;2024-02-15T03:29:04;41.18;36.20;54.23;;
59284;Laerm;45056;47.602;9.886;2024-02-15T03:31:33;43.90;36.45;58.14;;
59284;Laerm;45056;47.602;9.886;2024-02-15T03:34:04;43.12;36.77;59.54;;
59284;Laerm;45056;47.602;9.886;2024-02-15T03:36:32;40.01;36.20;43.14;;
59284;Laerm;45056;47.602;9.886;2024-02-15T03:39:00;42.56;36.91;53.88;;
59284;Laerm;45056;47.602;9.886;2024-02-15T03:41:28;40.17;36.69;44.23;;
59284;Laerm;45056;47.602;9.886;2024-02-15T03:43:59;43.69;37.35;58.14;;
59284;Laerm;45056;47.602;9.886;2024-02-15T03:46:27;43.94;33.90;58.03;;
59284;Laerm;45056;47.602;9.886;2024-02-15T03:48:55;42.26;37.70;54.85;;
59284;Laerm;45056;47.602;9.886;2024-02-15T03:51:25;42.50;36.91;57.66;;
59284;Laerm;45056;47.602;9.886;2024-02-15T03:53:53;42.23;38.05;49.65;;
59284;Laerm;45056;47.602;9.886;2024-02-15T03:56:21;43.49;37.12;52.58;;
59284;Laerm;45056;47.602;9.886;2024-02-15T03:58:49;40.71;36.91;43.09;;
59284;Laerm;45056;47.602;9.886;2024-02-15T04:01:18;50.61;38.37;66.22;;
59284;Laerm;45056;47.602;9.886;2024-02-15T04:03:46;42.47;37.70;53.74;;
59284;Laerm;45056;47.602;9.886;2024-02-15T04:06:14;43.66;38.52;56.65;;
59284;Laerm;45056;47.602;9.886;2024-02-15T04:08:43;43.85;39.21;56.24;;
59284;Laerm;45056;47.602;9.886;2024-02-15T04:11:11;42.25;37.52;51.96;;
59284;Laerm;45056;47.602;9.886;2024-02-15T04:13:40;42.64;37.52;51.82;;
59284;Laerm;45056;47.602;9.886;2024-02-15T04:16:09;43.79;38.95;57.35;;
59284;Laerm;45056;47.602;9.886;2024-02-15T04:18:37;43.18;38.05;53.59;;
59284;Laerm;45056;47.602;9.886;2024-02-15T04:21:05;44.73;39.21;58.44;;
59284;Laerm;45056;47.602;9.886;2024-02-15T04:23:34;46.31;38.52;58.78;;
59284;Laerm;45056;47.602;9.886;2024-02-15T04:26:03;41.45;37.88;45.48;;
59284;Laerm;45056;47.602;9.886;2024-02-15T04:28:31;44.25;37.88;58.55;;
59284;Laerm;45056;47.602;9.886;2024-02-15T04:31:00;46.81;38.37;63.23;;
59284;Laerm;45056;47.602;9.886;2024-02-15T04:33:28;49.05;39.58;66.03;;
59284;Laerm;45056;47.602;9.886;2024-02-15T04:35:56;45.94;40.53;57.22;;
59284;Laerm;45056;47.602;9.886;2024-02-15T04:38:25;46.53;40.71;57.77;;
59284;Laerm;45056;47.602;9.886;2024-02-15T04:40:53;49.08;41.38;60.63;;
59284;Laerm;45056;47.602;9.886;2024-02-15T04:43:23;45.33;39.99;53.85;;
59284;Laerm;45056;47.602;9.886;2024-02-15T04:45:51;49.33;40.80;66.87;;
59284;Laerm;45056;47.602;9.886;2024-02-15T04:48:19;46.46;40.71;55.92;;
59284;Laerm;45056;47.602;9.886;2024-02-15T04:50:47;43.73;39.58;51.47;;
59284;Laerm;45056;47.602;9.886;2024-02-15T04:53:15;46.96;40.62;58.19;;
59284;Laerm;45056;47.602;9.886;2024-02-15T04:55:43;49.08;40.89;64.41;;
59284;Laerm;45056;47.602;9.886;2024-02-15T04:58:11;46.21;40.80;58.37;;
59284;Laerm;45056;47.602;9.886;2024-02-15T05:00:41;49.03;40.33;59.29;;
59284;Laerm;45056;47.602;9.886;2024-02-15T05:03:08;56.83;40.80;71.27;;
59284;Laerm;45056;47.602;9.886;2024-02-15T05:05:36;52.54;40.03;69.10;;
59284;Laerm;45056;47.602;9.886;2024-02-15T05:08:05;46.52;40.13;60.90;;
59284;Laerm;45056;47.602;9.886;2024-02-15T05:10:35;47.73;39.92;63.32;;
59284;Laerm;45056;47.602;9.886;2024-02-15T05:13:03;46.26;40.23;58.26;;
59284;Laerm;45056;47.602;9.886;2024-02-15T05:15:32;45.68;40.33;57.37;;
59284;Laerm;45056;47.602;9.886;2024-02-15T05:18:01;45.29;39.92;55.98;;
59284;Laerm;45056;47.602;9.886;2024-02-15T05:20:29;45.82;38.67;58.40;;
59284;Laerm;45056;47.602;9.886;2024-02-15T05:22:57;45.44;38.81;60.00;;
59284;Laerm;45056;47.602;9.886;2024-02-15T05:25:25;43.21;38.37;55.75;;
59284;Laerm;45056;47.602;9.886;2024-02-15T05:27:54;45.05;38.95;58.32;;
59284;Laerm;45056;47.602;9.886;2024-02-15T05:30:22;46.99;40.03;60.83;;
59284;Laerm;45056;47.602;9.886;2024-02-15T05:32:50;46.03;38.95;58.35;;
59284;Laerm;45056;47.602;9.886;2024-02-15T05:35:20;45.62;38.52;57.09;;
59284;Laerm;45056;47.602;9.886;2024-02-15T05:37:48;46.07;39.46;57.73;;
59284;Laerm;45056;47.602;9.886;2024-02-15T05:40:19;49.76;40.43;70.04;;
59284;Laerm;45056;47.602;9.886;2024-02-15T05:42:47;48.20;40.53;61.25;;
59284;Laerm;45056;47.602;9.886;2024-02-15T05:45:30;46.87;40.80;63.03;;
59284;Laerm;45056;47.602;9.886;2024-02-15T05:47:59;48.92;41.22;59.89;;
59284;Laerm;45056;47.602;9.886;2024-02-15T05:50:29;45.08;40.23;56.78;;
59284;Laerm;45056;47.602;9.886;2024-02-15T05:52:57;46.07;40.98;57.71;;
59284;Laerm;45056;47.602;9.886;2024-02-15T05:55:25;47.51;41.75;57.96;;
59284;Laerm;45056;47.602;9.886;2024-02-15T05:57:56;48.10;42.09;58.38;;
59284;Laerm;45056;47.602;9.886;2024-02-15T06:00:24;49.98;40.98;61.50;;
59284;Laerm;45056;47.602;9.886;2024-02-15T06:02:51;47.24;40.33;59.96;;
59284;Laerm;45056;47.602;9.886;2024-02-15T06:05:21;48.27;41.89;57.65;;
59284;Laerm;45056;47.602;9.886;2024-02-15T06:07:51;47.18;41.82;56.61;;
59284;Laerm;45056;47.602;9.886;2024-02-15T06:10:19;46.61;41.46;57.30;;
59284;Laerm;45056;47.602;9.886;2024-02-15T06:12:47;51.44;42.82;67.30;;
59284;Laerm;45056;47.602;9.886;2024-02-15T06:15:16;47.55;41.30;59.61;;
59284;Laerm;45056;47.602;9.886;2024-02-15T06:17:46;48.21;41.46;58.73;;
59284;Laerm;45056;47.602;9.886;2024-02-15T06:20:16;48.15;39.58;60.46;;
59284;Laerm;45056;47.602;9.886;2024-02-15T06:22:44;46.32;40.53;56.41;;
59284;Laerm;45056;47.602;9.886;2024-02-15T06:25:14;49.04;42.16;63.53;;
59284;Laerm;45056;47.602;9.886;2024-02-15T06:27:47;47.89;41.53;60.99;;
59284;Laerm;45056;47.602;9.886;2024-02-15T06:30:15;50.62;43.86;61.13;;
59284;Laerm;45056;47.602;9.886;2024-02-15T06:33:01;56.31;44.15;74.88;;
59284;Laerm;45056;47.602;9.886;2024-02-15T06:35:46;47.60;41.38;57.89;;
59284;Laerm;45056;47.602;9.886;2024-02-15T06:38:31;46.38;40.80;55.25;;
59284;Laerm;45056;47.602;9.886;2024-02-15T06:41:19;49.52;43.34;62.42;;
59284;Laerm;45056;47.602;9.886;2024-02-15T06:43:46;47.93;42.41;61.50;;
59284;Laerm;45056;47.602;9.886;2024-02-15T06:46:14;51.53;43.09;60.78;;
59284;Laerm;45056;47.602;9.886;2024-02-15T06:48:42;47.62;42.16;59.92;;
59284;Laerm;45056;47.602;9.886;2024-02-15T06:51:12;47.99;41.89;57.00;;
59284;Laerm;45056;47.602;9.886;2024-02-15T06:53:41;51.89;42.47;65.41;;
59284;Laerm;45056;47.602;9.886;2024-02-15T06:56:09;48.57;42.09;61.82;;
59284;Laerm;45056;47.602;9.886;2024-02-15T06:58:39;48.50;42.03;57.39;;
59284;Laerm;45056;47.602;9.886;2024-02-15T07:01:08;51.06;41.38;60.03;;
59284;Laerm;45056;47.602;9.886;2024-02-15T07:03:36;45.83;41.61;55.04;;
59284;Laerm;45056;47.602;9.886;2024-02-15T07:06:05;46.54;40.71;60.32;;
59284;Laerm;45056;47.602;9.886;2024-02-15T07:08:33;51.04;42.65;64.74;;
59284;Laerm;45056;47.602;9.886;2024-02-15T07:11:02;46.62;41.68;63.55;;
59284;Laerm;45056;47.602;9.886;2024-02-15T07:13:30;49.34;41.96;65.00;;
59284;Laerm;45056;47.602;9.886;2024-02-15T07:16:00;52.93;42.29;65.95;;
59284;Laerm;45056;47.602;9.886;2024-02-15T07:18:28;46.97;40.80;57.49;;
59284;Laerm;45056;47.602;9.886;2024-02-15T07:20:56;48.32;40.98;59.70;;
59284;Laerm;45056;47.602;9.886;2024-02-15T07:23:26;48.93;41.82;60.97;;
59284;Laerm;45056;47.602;9.886;2024-02-15T07:25:54;47.67;42.53;59.65;;
59284;Laerm;45056;47.602;9.886;2024-02-15T07:28:21;51.89;42.59;69.07;;
59284;Laerm;45056;47.602;9.886;2024-02-15T07:30:52;47.31;41.75;58.91;;
59284;Laerm;45056;47.602;9.886;2024-02-15T07:33:22;45.61;41.38;54.41;;
59284;Laerm;45056;47.602;9.886;2024-02-15T07:35:50;52.17;42.59;65.09;;
59284;Laerm;45056;47.602;9.886;2024-02-15T07:38:18;49.89;41.68;64.11;;
59284;Laerm;45056;47.602;9.886;2024-02-15T07:40:49;46.91;40.98;56.68;;
59284;Laerm;45056;47.602;9.886;2024-02-15T07:43:17;48.36;41.46;58.84;;
59284;Laerm;45056;47.602;9.886;2024-02-15T07:45:45;48.55;41.53;65.99;;
59284;Laerm;45056;47.602;9.886;2024-02-15T07:48:15;48.46;40.80;60.99;;
59284;Laerm;45056;47.602;9.886;2024-02-15T07:50:45;45.69;41.14;55.69;;
59284;Laerm;45056;47.602;9.886;2024-02-15T07:53:13;46.99;42.35;58.20;;
59284;Laerm;45056;47.602;9.886;2024-02-15T07:55:41;45.85;40.89;57.48;;
59284;Laerm;45056;47.602;9.886;2024-02-15T07:58:10;46.62;41.06;55.54;;
59284;Laerm;45056;47.602;9.886;2024-02-15T08:00:39;50.19;41.14;59.89;;
59284;Laerm;45056;47.602;9.886;2024-02-15T08:03:07;49.93;42.16;63.26;;
59284;Laerm;45056;47.602;9.886;2024-02-15T08:05:35;46.55;40.03;56.65;;
59284;Laerm;45056;47.602;9.886;2024-02-15T08:08:06;47.35;41.61;56.13;;
59284;Laerm;45056;47.602;9.886;2024-02-15T08:10:34;46.96;40.23;57.12;;
59284;Laerm;45056;47.602;9.886;2024-02-15T08:13:02;49.02;41.14;64.16;;
59284;Laerm;45056;47.602;9.886;2024-02-15T08:15:30;49.84;40.80;68.69;;
59284;Laerm;45056;47.602;9.886;2024-02-15T08:17:59;47.85;40.13;59.14;;
59284;Laerm;45056;47.602;9.886;2024-02-15T08:20:31;47.36;41.53;62.04;;
59284;Laerm;45056;47.602;9.886;2024-02-15T08:23:01;47.89;41.22;57.77;;
59284;Laerm;45056;47.602;9.886;2024-02-15T08:25:30;56.97;42.71;88.89;;
59284;Laerm;45056;47.602;9.886;2024-02-15T08:27:58;49.89;42.22;72.45;;
59284;Laerm;45056;47.602;9.886;2024-02-15T08:30:32;49.15;42.35;58.99;;
59284;Laerm;45056;47.602;9.886;2024-02-15T08:33:00;47.07;42.22;58.82;;
59284;Laerm;45056;47.602;9.886;2024-02-15T08:35:28;48.98;41.61;61.57;;
59284;Laerm;45056;47.602;9.886;2024-02-15T08:37:56;46.67;41.30;55.88;;
59284;Laerm;45056;47.602;9.886;2024-02-15T08:40:24;46.75;40.80;55.54;;
59284;Laerm;45056;47.602;9.886;2024-02-15T08:42:54;47.60;41.03;56.17;;
59284;Laerm;45056;47.602;9.886;2024-02-15T08:45:22;48.94;41.38;59.99;;
59284;Laerm;45056;47.602;9.886;2024-02-15T08:47:51;48.59;42.22;58.76;;
59284;Laerm;45056;47.602;9.886;2024-02-15T08:50:20;48.71;41.22;58.62;;
59284;Laerm;45056;47.602;9.886;2024-02-15T08:52:50;49.68;40.43;62.23;;
59284;Laerm;45056;47.602;9.886;2024-02-15T08:55:18;49.89;42.98;62.32;;
59284;Laerm;45056;47.602;9.886;2024-02-15T08:57:50;51.67;42.59;64.05;;
59284;Laerm;45056;47.602;9.886;2024-02-15T09:00:20;49.23;39.21;60.79;;
59284;Laerm;45056;47.602;9.886;2024-02-15T09:02:48;48.58;40.43;57.49;;
59284;Laerm;45056;47.602;9.886;2024-02-15T09:05:18;47.64;42.35;59.42;;
59284;Laerm;45056;47.602;9.886;2024-02-15T09:07:48;47.83;41.68;55.39;;
59284;Laerm;45056;47.602;9.886;2024-02-15T09:10:18;47.16;41.41;56.80;;
59284;Laerm;45056;47.602;9.886;2024-02-15T09:12:49;47.64;42.00;55.67;;
59284;Laerm;45056;47.602;9.886;2024-02-15T09:15:17;50.33;41.89;61.47;;
59284;Laerm;45056;47.602;9.886;2024-02-15T09:17:47;47.38;41.68;56.84;;
59284;Laerm;45056;47.602;9.886;2024-02-15T09:20:16;49.44;41.61;64.34;;
59284;Laerm;45056;47.602;9.886;2024-02-15T09:22:48;48.60;42.03;59.74;;
59284;Laerm;45056;47.602;9.886;2024-02-15T09:25:17;51.23;41.89;66.79;;
59284;Laerm;45056;47.602;9.886;2024-02-15T09:27:46;47.99;41.96;58.41;;
59284;Laerm;45056;47.602;9.886;2024-02-15T09:30:15;48.61;41.38;58.26;;
59284;Laerm;45056;47.602;9.886;2024-02-15T09:32:44;50.77;40.80;64.21;;
59284;Laerm;45056;47.602;9.886;2024-02-15T09:35:13;47.82;41.38;57.30;;
59284;Laerm;45056;47.602;9.886;2024-02-15T09:37:47;51.43;42.59;64.14;;
59284;Laerm;45056;47.602;9.886;2024-02-15T09:40:17;48.38;42.16;63.88;;
59284;Laerm;45056;47.602;9.886;2024-02-15T09:42:47;47.43;41.14;63.31;;
59284;Laerm;45056;47.602;9.886;2024-02-15T09:45:15;48.58;39.46;57.98;;
59284;Laerm;45056;47.602;9.886;2024-02-15T09:47:46;48.47;40.62;60.66;;
59284;Laerm;45056;47.602;9.886;2024-02-15T09:50:18;48.00;41.14;54.89;;
59284;Laerm;45056;47.602;9.886;2024-02-15T09:52:51;49.58;41.89;66.61;;
59284;Laerm;45056;47.602;9.886;2024-02-15T09:55:20;47.01;40.62;55.58;;
59284;Laerm;45056;47.602;9.886;2024-02-15T09:57:50;47.74;41.75;57.06;;
59284;Laerm;45056;47.602;9.886;2024-02-15T10:00:19;51.60;41.75;62.89;;
59284;Laerm;45056;47.602;9.886;2024-02-15T10:02:50;50.97;40.33;62.21;;
59284;Laerm;45056;47.602;9.886;2024-02-15T10:05:21;47.79;40.23;56.57;;
59284;Laerm;45056;47.602;9.886;2024-02-15T10:07:49;51.06;41.53;64.27;;
59284;Laerm;45056;47.602;9.886;2024-02-15T10:10:20;48.72;40.43;57.69;;
59284;Laerm;45056;47.602;9.886;2024-02-15T10:12:49;48.70;41.22;56.77;;
59284;Laerm;45056;47.602;9.886;2024-02-15T10:15:30;50.24;40.98;62.84;;
59284;Laerm;45056;47.602;9.886;2024-02-15T10:18:00;48.35;41.38;59.25;;
59284;Laerm;45056;47.602;9.886;2024-02-15T10:20:30;47.70;41.22;57.45;;
59284;Laerm;45056;47.602;9.886;2024-02-15T10:23:10;50.23;41.06;64.82;;
59284;Laerm;45056;47.602;9.886;2024-02-15T10:25:40;48.13;40.53;61.61;;
59284;Laerm;45056;47.602;9.886;2024-02-15T10:28:10;48.82;41.33;60.15;;
59284;Laerm;45056;47.602;9.886;2024-02-15T10:30:40;47.20;41.48;58.16;;
59284;Laerm;45056;47.602;9.886;2024-02-15T10:33:10;47.43;40.71;56.35;;
59284;Laerm;45056;47.602;9.886;2024-02-15T10:35:47;48.95;40.43;66.29;;
59284;Laerm;45056;47.602;9.886;2024-02-15T10:38:15;49.30;42.16;58.57;;
59284;Laerm;45056;47.602;9.886;2024-02-15T10:40:44;48.72;40.54;63.27;;
59284;Laerm;45056;47.602;9.886;2024-02-15T10:43:15;48.26;41.22;59.48;;
59284;Laerm;45056;47.602;9.886;2024-02-15T10:45:44;48.61;41.82;57.59;;
59284;Laerm;45056;47.602;9.886;2024-02-15T10:48:13;48.20;40.03;57.78;;
59284;Laerm;45056;47.602;9.886;2024-02-15T10:50:41;48.35;41.14;55.73;;
59284;Laerm;45056;47.602;9.886;2024-02-15T10:53:26;47.01;40.89;57.71;;
59284;Laerm;45056;47.602;9.886;2024-02-15T10:56:07;47.93;41.22;55.59;;
59284;Laerm;45056;47.602;9.886;2024-02-15T10:58:50;49.46;41.14;62.34;;
59284;Laerm;45056;47.602;9.886;2024-02-15T11:01:23;50.54;40.62;58.49;;
59284;Laerm;45056;47.602;9.886;2024-02-15T11:04:00;58.76;41.88;69.17;;
59284;Laerm;45056;47.602;9.886;2024-02-15T11:06:39;57.06;43.77;67.08;;
59284;Laerm;45056;47.602;9.886;2024-02-15T11:09:12;48.21;41.61;64.07;;
59284;Laerm;45056;47.602;9.886;2024-02-15T11:11:43;48.46;40.89;56.41;;
59284;Laerm;45056;47.602;9.886;2024-02-15T11:14:25;49.28;41.06;63.14;;
59284;Laerm;45056;47.602;9.886;2024-02-15T11:16:54;48.21;41.41;58.14;;
59284;Laerm;45056;47.602;9.886;2024-02-15T11:19:43;48.69;42.03;56.57;;
59284;Laerm;45056;47.602;9.886;2024-02-15T11:22:15;48.99;40.88;62.60;;
59284;Laerm;45056;47.602;9.886;2024-02-15T11:24:50;47.18;39.58;56.63;;
59284;Laerm;45056;47.602;9.886;2024-02-15T11:27:27;47.39;39.70;57.78;;
59284;Laerm;45056;47.602;9.886;2024-02-15T11:29:58;47.95;40.89;56.19;;
59284;Laerm;45056;47.602;9.886;2024-02-15T11:32:41;50.47;40.23;65.36;;
59284;Laerm;45056;47.602;9.886;2024-02-15T11:35:17;46.39;40.62;57.42;;
59284;Laerm;45056;47.602;9.886;2024-02-15T11:37:55;45.76;39.81;57.28;;
59284;Laerm;45056;47.602;9.886;2024-02-15T11:40:59;49.01;38.95;60.64;;
59284;Laerm;45056;47.602;9.886;2024-02-15T11:43:51;47.38;39.46;58.68;;
59284;Laerm;45056;47.602;9.886;2024-02-15T11:46:25;47.76;40.53;59.17;;
59284;Laerm;45056;47.602;9.886;2024-02-15T11:48:57;49.33;40.98;60.01;;
59284;Laerm;45056;47.602;9.886;2024-02-15T11:51:29;45.74;40.33;58.51;;
59284;Laerm;45056;47.602;9.886;2024-02-15T11:54:04;48.17;40.43;59.36;;
59284;Laerm;45056;47.602;9.886;2024-02-15T11:56:56;47.57;40.53;57.45;;
59284;Laerm;45056;47.602;9.886;2024-02-15T11:59:41;52.57;40.53;78.83;;
59284;Laerm;45056;47.602;9.886;2024-02-15T12:02:41;48.00;40.98;56.66;;
59284;Laerm;45056;47.602;9.886;2024-02-15T12:05:23;47.79;41.46;56.68;;
59284;Laerm;45056;47.602;9.886;2024-02-15T12:08:11;48.26;40.80;62.32;;
59284;Laerm;45056;47.602;9.886;2024-02-15T12:10:58;47.57;41.46;58.48;;
59284;Laerm;45056;47.602;9.886;2024-02-15T12:13:51;50.96;40.53;66.53;;
59284;Laerm;45056;47.602;9.886;2024-02-15T12:16:36;47.47;40.80;58.13;;
59284;Laerm;45056;47.602;9.886;2024-02-15T12:19:23;46.89;41.53;56.60;;
59284;Laerm;45056;47.602;9.886;2024-02-15T12:21:53;46.33;41.46;56.91;;
59284;Laerm;45056;47.602;9.886;2024-02-15T12:24:23;48.89;40.53;57.95;;
59284;Laerm;45056;47.602;9.886;2024-02-15T12:27:00;48.22;41.30;59.55;;
59284;Laerm;45056;47.602;9.886;2024-02-15T12:29:31;50.98;40.71;67.67;;
59284;Laerm;45056;47.602;9.886;2024-02-15T12:32:02;48.65;41.14;59.33;;
59284;Laerm;45056;47.602;9.886;2024-02-15T12:34:30;47.22;41.46;56.52;;
59284;Laerm;45056;47.602;9.886;2024-02-15T12:37:07;48.37;40.03;57.94;;
59284;Laerm;45056;47.602;9.886;2024-02-15T12:39:36;49.43;41.68;60.39;;
59284;Laerm;45056;47.602;9.886;2024-02-15T12:42:06;48.87;41.22;62.66;;
59284;Laerm;45056;47.602;9.886;2024-02-15T12:44:43;46.98;40.33;57.22;;
59284;Laerm;45056;47.602;9.886;2024-02-15T12:47:20;49.12;40.23;61.43;;
59284;Laerm;45056;47.602;9.886;2024-02-15T12:49:49;48.22;40.80;59.10;;
59284;Laerm;45056;47.602;9.886;2024-02-15T12:52:36;46.63;40.89;56.17;;
59284;Laerm;45056;47.602;9.886;2024-02-15T12:55:14;47.60;41.26;59.11;;
59284;Laerm;45056;47.602;9.886;2024-02-15T12:57:46;48.92;40.53;62.66;;
59284;Laerm;45056;47.602;9.886;2024-02-15T13:00:20;49.03;41.82;59.46;;
59284;Laerm;45056;47.602;9.886;2024-02-15T13:02:50;50.04;41.38;63.63;;
59284;Laerm;45056;47.602;9.886;2024-02-15T13:05:20;47.94;40.23;64.50;;
59284;Laerm;45056;47.602;9.886;2024-02-15T13:07:49;49.12;42.35;56.90;;
59284;Laerm;45056;47.602;9.886;2024-02-15T13:10:18;49.14;41.96;60.16;;
59284;Laerm;45056;47.602;9.886;2024-02-15T13:12:46;51.98;41.68;68.67;;
59284;Laerm;45056;47.602;9.886;2024-02-15T13:15:16;47.11;41.46;66.35;;
59284;Laerm;45056;47.602;9.886;2024-02-15T13:17:50;47.29;40.33;57.80;;
59284;Laerm;45056;47.602;9.886;2024-02-15T13:20:18;49.97;40.62;64.31;;
59284;Laerm;45056;47.602;9.886;2024-02-15T13:22:56;49.07;40.71;59.08;;
59284;Laerm;45056;47.602;9.886;2024-02-15T13:25:27;50.53;41.89;61.56;;
59284;Laerm;45056;47.602;9.886;2024-02-15T13:27:55;48.38;41.89;59.56;;
59284;Laerm;45056;47.602;9.886;2024-02-15T13:30:23;50.85;41.38;65.88;;
59284;Laerm;45056;47.602;9.886;2024-02-15T13:32:55;50.49;41.96;58.83;;
59284;Laerm;45056;47.602;9.886;2024-02-15T13:35:23;48.21;41.30;57.37;;
59284;Laerm;45056;47.602;9.886;2024-02-15T13:37:54;48.89;42.35;55.88;;
59284;Laerm;45056;47.602;9.886;2024-02-15T13:40:26;49.76;42.09;65.61;;
59284;Laerm;45056;47.602;9.886;2024-02-15T13:42:56;48.20;42.35;60.21;;
59284;Laerm;45056;47.602;9.886;2024-02-15T13:45:30;53.68;40.98;70.38;;
59284;Laerm;45056;47.602;9.886;2024-02-15T13:48:01;48.22;40.53;60.36;;
59284;Laerm;45056;47.602;9.886;2024-02-15T13:50:30;50.08;42.16;64.16;;
59284;Laerm;45056;47.602;9.886;2024-02-15T13:53:00;48.06;40.03;61.00;;
59284;Laerm;45056;47.602;9.886;2024-02-15T13:55:28;49.03;41.89;65.89;;
59284;Laerm;45056;47.602;9.886;2024-02-15T13:57:58;48.28;41.14;59.54;;
59284;Laerm;45056;47.602;9.886;2024-02-15T14:00:27;50.18;42.47;61.47;;
59284;Laerm;45056;47.602;9.886;2024-02-15T14:03:01;48.46;42.30;58.07;;